sensor_id;sensor_type;location;lat;lon;timestamp;P1;durP1;ratioP1;P2;durP2;ratioP2
60973;SDS011;46846;51.528;5.076;2023-06-14T00:00:04;399.95;;;380.00;;
60973;SDS011;46846;51.528;5.076;2023-06-14T00:02:30;412.58;;;392.23;;
60973;SDS011;46846;51.528;5.076;2023-06-14T00:04:56;395.20;;;375.75;;
60973;SDS011;46846;51.528;5.076;2023-06-14T00:07:22;387.73;;;368.52;;
60973;SDS011;46846;51.528;5.076;2023-06-14T00:09:59;405.67;;;385.58;;
60973;SDS011;46846;51.528;5.076;2023-06-14T00:12:24;400.00;;;380.05;;
60973;SDS011;46846;51.528;5.076;2023-06-14T00:14:50;387.80;;;368.73;;
60973;SDS011;46846;51.528;5.076;2023-06-14T00:17:15;408.52;;;388.42;;
60973;SDS011;46846;51.528;5.076;2023-06-14T00:19:41;407.30;;;387.20;;
60973;SDS011;46846;51.528;5.076;2023-06-14T00:22:07;385.38;;;366.38;;
60973;SDS011;46846;51.528;5.076;2023-06-14T00:24:32;384.10;;;365.25;;
60973;SDS011;46846;51.528;5.076;2023-06-14T00:26:57;387.63;;;368.50;;
60973;SDS011;46846;51.528;5.076;2023-06-14T00:29:23;385.02;;;365.70;;
60973;SDS011;46846;51.528;5.076;2023-06-14T00:31:48;405.38;;;385.52;;
60973;SDS011;46846;51.528;5.076;2023-06-14T00:34:14;399.98;;;380.10;;
60973;SDS011;46846;51.528;5.076;2023-06-14T00:36:39;395.55;;;375.95;;
60973;SDS011;46846;51.528;5.076;2023-06-14T00:39:04;397.73;;;377.92;;
60973;SDS011;46846;51.528;5.076;2023-06-14T00:41:30;390.35;;;371.13;;
60973;SDS011;46846;51.528;5.076;2023-06-14T00:43:55;382.15;;;363.25;;
60973;SDS011;46846;51.528;5.076;2023-06-14T00:46:21;401.33;;;381.52;;
60973;SDS011;46846;51.528;5.076;2023-06-14T00:48:47;405.10;;;384.95;;
60973;SDS011;46846;51.528;5.076;2023-06-14T00:51:13;380.52;;;361.80;;
60973;SDS011;46846;51.528;5.076;2023-06-14T00:53:39;407.13;;;386.52;;
60973;SDS011;46846;51.528;5.076;2023-06-14T00:56:06;383.75;;;364.58;;
60973;SDS011;46846;51.528;5.076;2023-06-14T00:58:32;374.63;;;355.52;;
60973;SDS011;46846;51.528;5.076;2023-06-14T01:00:57;387.95;;;368.85;;
60973;SDS011;46846;51.528;5.076;2023-06-14T01:03:23;379.50;;;360.60;;
60973;SDS011;46846;51.528;5.076;2023-06-14T01:05:53;385.88;;;366.75;;
60973;SDS011;46846;51.528;5.076;2023-06-14T01:08:38;388.17;;;368.90;;
60973;SDS011;46846;51.528;5.076;2023-06-14T01:11:18;376.23;;;357.40;;
60973;SDS011;46846;51.528;5.076;2023-06-14T01:13:54;386.00;;;367.08;;
60973;SDS011;46846;51.528;5.076;2023-06-14T01:16:21;375.52;;;356.77;;
60973;SDS011;46846;51.528;5.076;2023-06-14T01:18:47;402.92;;;383.15;;
60973;SDS011;46846;51.528;5.076;2023-06-14T01:21:23;398.23;;;378.35;;
60973;SDS011;46846;51.528;5.076;2023-06-14T01:23:50;387.27;;;367.92;;
60973;SDS011;46846;51.528;5.076;2023-06-14T01:26:23;377.25;;;358.63;;
60973;SDS011;46846;51.528;5.076;2023-06-14T01:28:51;378.33;;;359.33;;
60973;SDS011;46846;51.528;5.076;2023-06-14T01:31:23;382.80;;;364.00;;
60973;SDS011;46846;51.528;5.076;2023-06-14T01:33:50;379.35;;;360.70;;
60973;SDS011;46846;51.528;5.076;2023-06-14T01:36:17;391.65;;;372.45;;
60973;SDS011;46846;51.528;5.076;2023-06-14T01:38:44;374.75;;;356.33;;
60973;SDS011;46846;51.528;5.076;2023-06-14T01:41:11;388.70;;;369.40;;
60973;SDS011;46846;51.528;5.076;2023-06-14T01:43:37;377.80;;;359.25;;
60973;SDS011;46846;51.528;5.076;2023-06-14T01:46:05;372.27;;;353.73;;
60973;SDS011;46846;51.528;5.076;2023-06-14T01:48:31;379.63;;;360.98;;
60973;SDS011;46846;51.528;5.076;2023-06-14T01:50:57;371.45;;;353.15;;
60973;SDS011;46846;51.528;5.076;2023-06-14T01:53:22;385.35;;;366.40;;
60973;SDS011;46846;51.528;5.076;2023-06-14T01:55:48;382.05;;;363.25;;
60973;SDS011;46846;51.528;5.076;2023-06-14T01:58:13;382.10;;;363.35;;
60973;SDS011;46846;51.528;5.076;2023-06-14T02:00:41;380.35;;;361.50;;
60973;SDS011;46846;51.528;5.076;2023-06-14T02:03:08;369.95;;;351.77;;
60973;SDS011;46846;51.528;5.076;2023-06-14T02:05:33;373.65;;;355.30;;
60973;SDS011;46846;51.528;5.076;2023-06-14T02:07:59;377.00;;;358.40;;
60973;SDS011;46846;51.528;5.076;2023-06-14T02:10:25;369.27;;;351.02;;
60973;SDS011;46846;51.528;5.076;2023-06-14T02:12:51;364.23;;;346.00;;
60973;SDS011;46846;51.528;5.076;2023-06-14T02:15:16;378.27;;;359.63;;
60973;SDS011;46846;51.528;5.076;2023-06-14T02:17:44;385.25;;;365.95;;
60973;SDS011;46846;51.528;5.076;2023-06-14T02:20:13;382.38;;;363.48;;
60973;SDS011;46846;51.528;5.076;2023-06-14T02:22:38;377.67;;;359.13;;
60973;SDS011;46846;51.528;5.076;2023-06-14T02:25:04;357.55;;;339.88;;
60973;SDS011;46846;51.528;5.076;2023-06-14T02:27:30;373.10;;;354.27;;
60973;SDS011;46846;51.528;5.076;2023-06-14T02:29:55;376.77;;;357.92;;
60973;SDS011;46846;51.528;5.076;2023-06-14T02:32:21;347.92;;;330.45;;
60973;SDS011;46846;51.528;5.076;2023-06-14T02:34:46;371.92;;;353.70;;
60973;SDS011;46846;51.528;5.076;2023-06-14T02:37:15;367.85;;;348.98;;
60973;SDS011;46846;51.528;5.076;2023-06-14T02:39:41;380.67;;;361.63;;
60973;SDS011;46846;51.528;5.076;2023-06-14T02:42:06;359.58;;;341.73;;
60973;SDS011;46846;51.528;5.076;2023-06-14T02:44:32;374.17;;;355.73;;
60973;SDS011;46846;51.528;5.076;2023-06-14T02:46:57;361.13;;;343.27;;
60973;SDS011;46846;51.528;5.076;2023-06-14T02:49:24;353.25;;;335.67;;
60973;SDS011;46846;51.528;5.076;2023-06-14T02:51:50;361.45;;;343.48;;
60973;SDS011;46846;51.528;5.076;2023-06-14T02:54:15;351.88;;;334.45;;
60973;SDS011;46846;51.528;5.076;2023-06-14T02:56:40;355.90;;;338.27;;
60973;SDS011;46846;51.528;5.076;2023-06-14T02:59:06;364.13;;;346.05;;
60973;SDS011;46846;51.528;5.076;2023-06-14T03:01:32;344.58;;;327.42;;
60973;SDS011;46846;51.528;5.076;2023-06-14T03:04:05;360.95;;;343.10;;
60973;SDS011;46846;51.528;5.076;2023-06-14T03:06:32;367.33;;;348.48;;
60973;SDS011;46846;51.528;5.076;2023-06-14T03:08:58;357.55;;;339.73;;
60973;SDS011;46846;51.528;5.076;2023-06-14T03:11:29;355.77;;;337.98;;
60973;SDS011;46846;51.528;5.076;2023-06-14T03:13:55;356.95;;;339.27;;
60973;SDS011;46846;51.528;5.076;2023-06-14T03:16:21;357.08;;;339.48;;
60973;SDS011;46846;51.528;5.076;2023-06-14T03:18:49;349.25;;;331.77;;
60973;SDS011;46846;51.528;5.076;2023-06-14T03:21:20;356.73;;;339.17;;
60973;SDS011;46846;51.528;5.076;2023-06-14T03:23:47;348.33;;;330.88;;
60973;SDS011;46846;51.528;5.076;2023-06-14T03:26:13;337.25;;;320.55;;
60973;SDS011;46846;51.528;5.076;2023-06-14T03:28:40;345.02;;;327.65;;
60973;SDS011;46846;51.528;5.076;2023-06-14T03:31:06;339.02;;;321.65;;
60973;SDS011;46846;51.528;5.076;2023-06-14T03:33:32;354.35;;;336.70;;
60973;SDS011;46846;51.528;5.076;2023-06-14T03:35:57;363.98;;;346.02;;
60973;SDS011;46846;51.528;5.076;2023-06-14T03:38:23;345.15;;;327.65;;
60973;SDS011;46846;51.528;5.076;2023-06-14T03:40:48;348.20;;;330.83;;
60973;SDS011;46846;51.528;5.076;2023-06-14T03:43:14;351.30;;;334.00;;
60973;SDS011;46846;51.528;5.076;2023-06-14T03:45:39;355.90;;;338.05;;
60973;SDS011;46846;51.528;5.076;2023-06-14T03:48:05;330.92;;;314.42;;
60973;SDS011;46846;51.528;5.076;2023-06-14T03:50:31;345.23;;;328.05;;
60973;SDS011;46846;51.528;5.076;2023-06-14T03:52:57;345.83;;;328.38;;
60973;SDS011;46846;51.528;5.076;2023-06-14T03:55:23;338.42;;;321.60;;
60973;SDS011;46846;51.528;5.076;2023-06-14T03:57:50;354.42;;;336.83;;
60973;SDS011;46846;51.528;5.076;2023-06-14T04:00:16;340.13;;;323.08;;
60973;SDS011;46846;51.528;5.076;2023-06-14T04:02:43;353.60;;;335.77;;
60973;SDS011;46846;51.528;5.076;2023-06-14T04:05:09;352.65;;;334.70;;
60973;SDS011;46846;51.528;5.076;2023-06-14T04:07:35;353.35;;;335.92;;
60973;SDS011;46846;51.528;5.076;2023-06-14T04:10:05;341.25;;;323.85;;
60973;SDS011;46846;51.528;5.076;2023-06-14T04:12:32;345.50;;;328.30;;
60973;SDS011;46846;51.528;5.076;2023-06-14T04:14:58;350.52;;;333.13;;
60973;SDS011;46846;51.528;5.076;2023-06-14T04:17:23;339.42;;;322.50;;
60973;SDS011;46846;51.528;5.076;2023-06-14T04:19:48;350.05;;;332.40;;
60973;SDS011;46846;51.528;5.076;2023-06-14T04:22:14;340.90;;;323.95;;
60973;SDS011;46846;51.528;5.076;2023-06-14T04:24:39;352.33;;;334.55;;
60973;SDS011;46846;51.528;5.076;2023-06-14T04:27:07;354.58;;;337.00;;
60973;SDS011;46846;51.528;5.076;2023-06-14T04:29:33;339.00;;;322.27;;
60973;SDS011;46846;51.528;5.076;2023-06-14T04:31:58;339.05;;;321.80;;
60973;SDS011;46846;51.528;5.076;2023-06-14T04:34:25;337.00;;;319.77;;
60973;SDS011;46846;51.528;5.076;2023-06-14T04:36:55;352.33;;;334.70;;
60973;SDS011;46846;51.528;5.076;2023-06-14T04:39:21;332.95;;;316.40;;
60973;SDS011;46846;51.528;5.076;2023-06-14T04:41:47;337.92;;;320.70;;
60973;SDS011;46846;51.528;5.076;2023-06-14T04:44:16;333.90;;;317.10;;
60973;SDS011;46846;51.528;5.076;2023-06-14T04:46:43;332.05;;;315.17;;
60973;SDS011;46846;51.528;5.076;2023-06-14T04:49:12;352.10;;;334.35;;
60973;SDS011;46846;51.528;5.076;2023-06-14T04:51:40;335.05;;;318.35;;
60973;SDS011;46846;51.528;5.076;2023-06-14T04:54:07;343.02;;;325.60;;
60973;SDS011;46846;51.528;5.076;2023-06-14T04:56:35;347.60;;;329.98;;
60973;SDS011;46846;51.528;5.076;2023-06-14T04:59:02;334.48;;;317.63;;
60973;SDS011;46846;51.528;5.076;2023-06-14T05:01:29;335.33;;;318.67;;
60973;SDS011;46846;51.528;5.076;2023-06-14T05:03:56;338.05;;;321.23;;
60973;SDS011;46846;51.528;5.076;2023-06-14T05:06:22;331.50;;;315.00;;
60973;SDS011;46846;51.528;5.076;2023-06-14T05:08:47;326.80;;;309.80;;
60973;SDS011;46846;51.528;5.076;2023-06-14T05:11:13;331.73;;;315.23;;
60973;SDS011;46846;51.528;5.076;2023-06-14T05:13:38;331.65;;;314.65;;
60973;SDS011;46846;51.528;5.076;2023-06-14T05:16:06;335.48;;;318.67;;
60973;SDS011;46846;51.528;5.076;2023-06-14T05:18:31;328.02;;;311.25;;
60973;SDS011;46846;51.528;5.076;2023-06-14T05:20:59;336.58;;;319.75;;
60973;SDS011;46846;51.528;5.076;2023-06-14T05:23:25;323.88;;;307.13;;
60973;SDS011;46846;51.528;5.076;2023-06-14T05:25:50;334.17;;;317.52;;
60973;SDS011;46846;51.528;5.076;2023-06-14T05:28:16;346.80;;;329.05;;
60973;SDS011;46846;51.528;5.076;2023-06-14T05:30:41;327.38;;;310.60;;
60973;SDS011;46846;51.528;5.076;2023-06-14T05:33:07;338.60;;;321.73;;
60973;SDS011;46846;51.528;5.076;2023-06-14T05:35:32;340.88;;;323.80;;
60973;SDS011;46846;51.528;5.076;2023-06-14T05:37:58;338.80;;;321.83;;
60973;SDS011;46846;51.528;5.076;2023-06-14T05:40:23;345.05;;;327.77;;
60973;SDS011;46846;51.528;5.076;2023-06-14T05:42:49;327.83;;;311.35;;
60973;SDS011;46846;51.528;5.076;2023-06-14T05:45:14;327.77;;;311.27;;
60973;SDS011;46846;51.528;5.076;2023-06-14T05:47:42;325.63;;;309.15;;
60973;SDS011;46846;51.528;5.076;2023-06-14T05:50:08;325.38;;;308.67;;
60973;SDS011;46846;51.528;5.076;2023-06-14T05:52:34;328.30;;;311.88;;
60973;SDS011;46846;51.528;5.076;2023-06-14T05:55:00;339.98;;;322.85;;
60973;SDS011;46846;51.528;5.076;2023-06-14T05:57:26;324.10;;;307.50;;
60973;SDS011;46846;51.528;5.076;2023-06-14T05:59:51;320.75;;;304.42;;
60973;SDS011;46846;51.528;5.076;2023-06-14T06:02:17;327.70;;;311.20;;
60973;SDS011;46846;51.528;5.076;2023-06-14T06:04:42;327.33;;;310.88;;
60973;SDS011;46846;51.528;5.076;2023-06-14T06:07:08;331.13;;;314.17;;
60973;SDS011;46846;51.528;5.076;2023-06-14T06:09:33;335.60;;;318.83;;
60973;SDS011;46846;51.528;5.076;2023-06-14T06:11:58;327.80;;;309.45;;
60973;SDS011;46846;51.528;5.076;2023-06-14T06:14:24;333.13;;;316.10;;
60973;SDS011;46846;51.528;5.076;2023-06-14T06:16:50;331.33;;;314.77;;
60973;SDS011;46846;51.528;5.076;2023-06-14T06:19:17;312.70;;;297.13;;
60973;SDS011;46846;51.528;5.076;2023-06-14T06:21:43;329.38;;;312.63;;
60973;SDS011;46846;51.528;5.076;2023-06-14T06:24:08;334.98;;;318.05;;
60973;SDS011;46846;51.528;5.076;2023-06-14T06:26:34;341.23;;;324.10;;
60973;SDS011;46846;51.528;5.076;2023-06-14T06:28:59;329.67;;;312.85;;
60973;SDS011;46846;51.528;5.076;2023-06-14T06:31:25;322.95;;;305.95;;
60973;SDS011;46846;51.528;5.076;2023-06-14T06:33:52;337.90;;;321.13;;
60973;SDS011;46846;51.528;5.076;2023-06-14T06:36:19;333.58;;;316.55;;
60973;SDS011;46846;51.528;5.076;2023-06-14T06:38:46;330.70;;;313.70;;
60973;SDS011;46846;51.528;5.076;2023-06-14T06:41:12;336.65;;;319.38;;
60973;SDS011;46846;51.528;5.076;2023-06-14T06:43:38;339.20;;;319.92;;
60973;SDS011;46846;51.528;5.076;2023-06-14T06:46:03;337.63;;;320.83;;
60973;SDS011;46846;51.528;5.076;2023-06-14T06:48:28;332.55;;;315.45;;
60973;SDS011;46846;51.528;5.076;2023-06-14T06:50:54;323.20;;;306.98;;
60973;SDS011;46846;51.528;5.076;2023-06-14T06:53:20;328.25;;;311.83;;
60973;SDS011;46846;51.528;5.076;2023-06-14T06:55:45;332.90;;;315.95;;
60973;SDS011;46846;51.528;5.076;2023-06-14T06:58:11;330.52;;;313.63;;
60973;SDS011;46846;51.528;5.076;2023-06-14T07:00:37;335.65;;;318.83;;
60973;SDS011;46846;51.528;5.076;2023-06-14T07:03:02;334.58;;;317.20;;
60973;SDS011;46846;51.528;5.076;2023-06-14T07:05:29;344.70;;;327.38;;
60973;SDS011;46846;51.528;5.076;2023-06-14T07:07:54;333.48;;;316.52;;
60973;SDS011;46846;51.528;5.076;2023-06-14T07:10:21;351.27;;;333.73;;
60973;SDS011;46846;51.528;5.076;2023-06-14T07:12:47;342.63;;;324.73;;
60973;SDS011;46846;51.528;5.076;2023-06-14T07:15:12;332.80;;;316.20;;
60973;SDS011;46846;51.528;5.076;2023-06-14T07:17:38;338.48;;;321.08;;
60973;SDS011;46846;51.528;5.076;2023-06-14T07:20:04;338.95;;;321.95;;
60973;SDS011;46846;51.528;5.076;2023-06-14T07:22:34;342.08;;;325.00;;
60973;SDS011;46846;51.528;5.076;2023-06-14T07:24:59;337.58;;;320.52;;
60973;SDS011;46846;51.528;5.076;2023-06-14T07:27:24;335.58;;;318.73;;
60973;SDS011;46846;51.528;5.076;2023-06-14T07:29:50;335.70;;;318.42;;
60973;SDS011;46846;51.528;5.076;2023-06-14T07:32:15;335.55;;;318.67;;
60973;SDS011;46846;51.528;5.076;2023-06-14T07:34:41;337.50;;;320.50;;
60973;SDS011;46846;51.528;5.076;2023-06-14T07:37:06;357.02;;;339.17;;
60973;SDS011;46846;51.528;5.076;2023-06-14T07:39:31;347.55;;;329.85;;
60973;SDS011;46846;51.528;5.076;2023-06-14T07:41:57;350.63;;;333.05;;
60973;SDS011;46846;51.528;5.076;2023-06-14T07:44:22;354.42;;;336.45;;
60973;SDS011;46846;51.528;5.076;2023-06-14T07:46:48;356.73;;;338.50;;
60973;SDS011;46846;51.528;5.076;2023-06-14T07:49:14;349.60;;;332.20;;
60973;SDS011;46846;51.528;5.076;2023-06-14T07:51:40;338.77;;;321.50;;
60973;SDS011;46846;51.528;5.076;2023-06-14T07:54:05;344.85;;;327.67;;
60973;SDS011;46846;51.528;5.076;2023-06-14T07:56:32;337.95;;;321.05;;
60973;SDS011;46846;51.528;5.076;2023-06-14T07:58:58;350.80;;;332.67;;
60973;SDS011;46846;51.528;5.076;2023-06-14T08:01:23;353.15;;;334.35;;
60973;SDS011;46846;51.528;5.076;2023-06-14T08:03:50;350.70;;;333.08;;
60973;SDS011;46846;51.528;5.076;2023-06-14T08:06:15;339.10;;;321.65;;
60973;SDS011;46846;51.528;5.076;2023-06-14T08:08:41;340.33;;;323.38;;
60973;SDS011;46846;51.528;5.076;2023-06-14T08:11:06;370.35;;;352.08;;
60973;SDS011;46846;51.528;5.076;2023-06-14T08:13:32;344.23;;;326.92;;
60973;SDS011;46846;51.528;5.076;2023-06-14T08:15:58;358.15;;;340.05;;
60973;SDS011;46846;51.528;5.076;2023-06-14T08:18:23;347.50;;;329.88;;
60973;SDS011;46846;51.528;5.076;2023-06-14T08:20:49;348.65;;;331.05;;
60973;SDS011;46846;51.528;5.076;2023-06-14T08:23:15;359.50;;;341.63;;
60973;SDS011;46846;51.528;5.076;2023-06-14T08:25:44;369.10;;;350.90;;
60973;SDS011;46846;51.528;5.076;2023-06-14T08:28:09;367.48;;;349.05;;
60973;SDS011;46846;51.528;5.076;2023-06-14T08:30:35;367.65;;;349.15;;
60973;SDS011;46846;51.528;5.076;2023-06-14T08:33:00;351.55;;;333.90;;
60973;SDS011;46846;51.528;5.076;2023-06-14T08:35:26;379.75;;;360.83;;
60973;SDS011;46846;51.528;5.076;2023-06-14T08:37:51;378.90;;;360.25;;
60973;SDS011;46846;51.528;5.076;2023-06-14T08:40:20;357.92;;;339.48;;
60973;SDS011;46846;51.528;5.076;2023-06-14T08:42:48;374.38;;;355.25;;
60973;SDS011;46846;51.528;5.076;2023-06-14T08:45:16;366.00;;;347.80;;
60973;SDS011;46846;51.528;5.076;2023-06-14T08:47:42;371.05;;;352.63;;
60973;SDS011;46846;51.528;5.076;2023-06-14T08:50:08;388.05;;;368.95;;
60973;SDS011;46846;51.528;5.076;2023-06-14T08:52:35;368.50;;;350.17;;
60973;SDS011;46846;51.528;5.076;2023-06-14T08:55:14;374.98;;;356.27;;
60973;SDS011;46846;51.528;5.076;2023-06-14T08:57:42;367.08;;;348.08;;
60973;SDS011;46846;51.528;5.076;2023-06-14T09:00:09;377.20;;;357.92;;
60973;SDS011;46846;51.528;5.076;2023-06-14T09:02:39;373.15;;;354.10;;
60973;SDS011;46846;51.528;5.076;2023-06-14T09:05:11;381.50;;;362.67;;
60973;SDS011;46846;51.528;5.076;2023-06-14T09:07:43;380.42;;;361.38;;
60973;SDS011;46846;51.528;5.076;2023-06-14T09:10:10;374.98;;;356.35;;
60973;SDS011;46846;51.528;5.076;2023-06-14T09:12:37;384.45;;;364.88;;
60973;SDS011;46846;51.528;5.076;2023-06-14T09:15:04;389.83;;;370.60;;
60973;SDS011;46846;51.528;5.076;2023-06-14T09:17:40;382.27;;;363.23;;
60973;SDS011;46846;51.528;5.076;2023-06-14T09:20:06;375.50;;;356.88;;
60973;SDS011;46846;51.528;5.076;2023-06-14T09:22:35;395.70;;;376.15;;
60973;SDS011;46846;51.528;5.076;2023-06-14T09:25:01;383.50;;;364.45;;
60973;SDS011;46846;51.528;5.076;2023-06-14T09:27:28;385.15;;;366.00;;
60973;SDS011;46846;51.528;5.076;2023-06-14T09:29:54;379.17;;;360.15;;
60973;SDS011;46846;51.528;5.076;2023-06-14T09:32:20;388.90;;;369.23;;
60973;SDS011;46846;51.528;5.076;2023-06-14T09:34:47;382.83;;;363.77;;
60973;SDS011;46846;51.528;5.076;2023-06-14T09:37:13;387.67;;;367.80;;
60973;SDS011;46846;51.528;5.076;2023-06-14T09:39:50;392.13;;;372.63;;
60973;SDS011;46846;51.528;5.076;2023-06-14T09:42:16;392.65;;;373.08;;
60973;SDS011;46846;51.528;5.076;2023-06-14T09:44:45;397.77;;;377.50;;
60973;SDS011;46846;51.528;5.076;2023-06-14T09:47:13;391.20;;;372.02;;
60973;SDS011;46846;51.528;5.076;2023-06-14T09:49:40;387.33;;;367.48;;
60973;SDS011;46846;51.528;5.076;2023-06-14T09:52:05;398.60;;;378.90;;
60973;SDS011;46846;51.528;5.076;2023-06-14T09:54:35;398.35;;;378.15;;
60973;SDS011;46846;51.528;5.076;2023-06-14T09:57:07;400.23;;;380.20;;
60973;SDS011;46846;51.528;5.076;2023-06-14T09:59:34;394.48;;;374.70;;
60973;SDS011;46846;51.528;5.076;2023-06-14T10:02:03;393.20;;;373.70;;
60973;SDS011;46846;51.528;5.076;2023-06-14T10:04:34;405.55;;;385.20;;
60973;SDS011;46846;51.528;5.076;2023-06-14T10:07:00;401.52;;;380.80;;
60973;SDS011;46846;51.528;5.076;2023-06-14T10:09:27;393.45;;;374.17;;
60973;SDS011;46846;51.528;5.076;2023-06-14T10:11:54;418.60;;;397.92;;
60973;SDS011;46846;51.528;5.076;2023-06-14T10:14:20;402.23;;;382.50;;
60973;SDS011;46846;51.528;5.076;2023-06-14T10:16:50;393.75;;;374.38;;
60973;SDS011;46846;51.528;5.076;2023-06-14T10:24:14;415.95;;;395.80;;
60973;SDS011;46846;51.528;5.076;2023-06-14T10:26:53;420.90;;;400.25;;
60973;SDS011;46846;51.528;5.076;2023-06-14T10:29:19;405.95;;;386.05;;
60973;SDS011;46846;51.528;5.076;2023-06-14T10:31:46;417.10;;;396.70;;
60973;SDS011;46846;51.528;5.076;2023-06-14T10:34:23;413.17;;;393.00;;
60973;SDS011;46846;51.528;5.076;2023-06-14T10:37:06;425.98;;;404.95;;
60973;SDS011;46846;51.528;5.076;2023-06-14T10:39:42;414.73;;;394.55;;
60973;SDS011;46846;51.528;5.076;2023-06-14T10:42:11;410.20;;;390.23;;
60973;SDS011;46846;51.528;5.076;2023-06-14T10:44:38;409.92;;;389.75;;
60973;SDS011;46846;51.528;5.076;2023-06-14T10:47:30;432.27;;;411.33;;
60973;SDS011;46846;51.528;5.076;2023-06-14T10:49:58;423.17;;;402.58;;
60973;SDS011;46846;51.528;5.076;2023-06-14T10:52:37;419.95;;;399.55;;
60973;SDS011;46846;51.528;5.076;2023-06-14T10:55:05;409.23;;;388.83;;
60973;SDS011;46846;51.528;5.076;2023-06-14T10:57:53;426.02;;;404.65;;
60973;SDS011;46846;51.528;5.076;2023-06-14T11:00:24;423.65;;;403.02;;
60973;SDS011;46846;51.528;5.076;2023-06-14T11:02:56;431.13;;;410.02;;
60973;SDS011;46846;51.528;5.076;2023-06-14T11:11:09;432.77;;;411.27;;
60973;SDS011;46846;51.528;5.076;2023-06-14T11:13:38;433.33;;;412.23;;
60973;SDS011;46846;51.528;5.076;2023-06-14T11:16:10;419.38;;;399.00;;
60973;SDS011;46846;51.528;5.076;2023-06-14T11:18:39;428.70;;;407.77;;
60973;SDS011;46846;51.528;5.076;2023-06-14T11:21:06;424.27;;;403.38;;
60973;SDS011;46846;51.528;5.076;2023-06-14T11:23:31;422.75;;;402.20;;
60973;SDS011;46846;51.528;5.076;2023-06-14T11:25:56;432.92;;;411.88;;
60973;SDS011;46846;51.528;5.076;2023-06-14T11:28:22;416.33;;;396.13;;
60973;SDS011;46846;51.528;5.076;2023-06-14T11:30:49;417.15;;;396.85;;
60973;SDS011;46846;51.528;5.076;2023-06-14T11:33:24;438.83;;;417.40;;
60973;SDS011;46846;51.528;5.076;2023-06-14T11:35:50;421.77;;;401.30;;
60973;SDS011;46846;51.528;5.076;2023-06-14T11:38:16;424.58;;;403.90;;
60973;SDS011;46846;51.528;5.076;2023-06-14T11:40:41;418.15;;;397.73;;
60973;SDS011;46846;51.528;5.076;2023-06-14T11:43:07;436.15;;;414.75;;
60973;SDS011;46846;51.528;5.076;2023-06-14T11:45:33;424.42;;;403.75;;
60973;SDS011;46846;51.528;5.076;2023-06-14T11:47:58;441.92;;;419.88;;
60973;SDS011;46846;51.528;5.076;2023-06-14T11:50:24;429.25;;;408.30;;
60973;SDS011;46846;51.528;5.076;2023-06-14T11:55:20;444.05;;;422.55;;
60973;SDS011;46846;51.528;5.076;2023-06-14T11:57:46;431.77;;;410.88;;
60973;SDS011;46846;51.528;5.076;2023-06-14T12:00:12;437.00;;;415.85;;
60973;SDS011;46846;51.528;5.076;2023-06-14T12:02:38;434.25;;;413.23;;
60973;SDS011;46846;51.528;5.076;2023-06-14T12:05:05;441.58;;;420.23;;
60973;SDS011;46846;51.528;5.076;2023-06-14T12:07:37;430.85;;;409.85;;
60973;SDS011;46846;51.528;5.076;2023-06-14T12:10:07;437.23;;;416.08;;
60973;SDS011;46846;51.528;5.076;2023-06-14T12:12:36;423.63;;;403.00;;
60973;SDS011;46846;51.528;5.076;2023-06-14T12:15:04;437.17;;;416.00;;
60973;SDS011;46846;51.528;5.076;2023-06-14T12:17:32;433.73;;;412.73;;
60973;SDS011;46846;51.528;5.076;2023-06-14T12:20:07;429.85;;;408.95;;
60973;SDS011;46846;51.528;5.076;2023-06-14T12:22:38;444.45;;;422.35;;
60973;SDS011;46846;51.528;5.076;2023-06-14T12:25:05;436.95;;;415.27;;
60973;SDS011;46846;51.528;5.076;2023-06-14T12:27:30;435.02;;;413.90;;
60973;SDS011;46846;51.528;5.076;2023-06-14T12:30:05;427.88;;;407.08;;
60973;SDS011;46846;51.528;5.076;2023-06-14T12:32:32;429.85;;;408.88;;
60973;SDS011;46846;51.528;5.076;2023-06-14T12:34:58;431.77;;;410.63;;
60973;SDS011;46846;51.528;5.076;2023-06-14T12:37:23;442.52;;;421.08;;
60973;SDS011;46846;51.528;5.076;2023-06-14T12:39:49;444.70;;;422.85;;
60973;SDS011;46846;51.528;5.076;2023-06-14T12:42:15;426.45;;;405.60;;
60973;SDS011;46846;51.528;5.076;2023-06-14T12:44:41;443.70;;;422.05;;
60973;SDS011;46846;51.528;5.076;2023-06-14T12:47:07;429.55;;;408.15;;
60973;SDS011;46846;51.528;5.076;2023-06-14T12:49:33;443.92;;;422.30;;
60973;SDS011;46846;51.528;5.076;2023-06-14T12:51:58;445.98;;;424.38;;
60973;SDS011;46846;51.528;5.076;2023-06-14T12:54:24;433.73;;;412.50;;
60973;SDS011;46846;51.528;5.076;2023-06-14T12:56:50;433.92;;;412.80;;
60973;SDS011;46846;51.528;5.076;2023-06-14T12:59:20;437.35;;;415.85;;
60973;SDS011;46846;51.528;5.076;2023-06-14T13:01:45;449.85;;;427.98;;
60973;SDS011;46846;51.528;5.076;2023-06-14T13:04:12;450.85;;;428.42;;
60973;SDS011;46846;51.528;5.076;2023-06-14T13:06:38;434.65;;;413.55;;
60973;SDS011;46846;51.528;5.076;2023-06-14T13:09:03;450.98;;;429.05;;
60973;SDS011;46846;51.528;5.076;2023-06-14T13:11:28;451.90;;;429.80;;
60973;SDS011;46846;51.528;5.076;2023-06-14T13:13:54;452.45;;;430.38;;
60973;SDS011;46846;51.528;5.076;2023-06-14T13:16:20;464.70;;;442.38;;
60973;SDS011;46846;51.528;5.076;2023-06-14T13:18:45;446.60;;;424.88;;
60973;SDS011;46846;51.528;5.076;2023-06-14T13:21:10;447.90;;;426.15;;
60973;SDS011;46846;51.528;5.076;2023-06-14T13:23:36;457.13;;;435.05;;
60973;SDS011;46846;51.528;5.076;2023-06-14T13:26:01;446.40;;;424.63;;
60973;SDS011;46846;51.528;5.076;2023-06-14T13:28:26;458.17;;;436.00;;
60973;SDS011;46846;51.528;5.076;2023-06-14T13:30:52;455.48;;;432.88;;
60973;SDS011;46846;51.528;5.076;2023-06-14T13:33:18;446.35;;;424.77;;
60973;SDS011;46846;51.528;5.076;2023-06-14T13:35:43;441.02;;;419.63;;
60973;SDS011;46846;51.528;5.076;2023-06-14T13:38:09;436.27;;;415.08;;
60973;SDS011;46846;51.528;5.076;2023-06-14T13:40:35;450.48;;;428.60;;
60973;SDS011;46846;51.528;5.076;2023-06-14T13:43:01;447.75;;;426.00;;
60973;SDS011;46846;51.528;5.076;2023-06-14T13:45:26;439.05;;;417.60;;
60973;SDS011;46846;51.528;5.076;2023-06-14T13:47:52;440.35;;;418.17;;
60973;SDS011;46846;51.528;5.076;2023-06-14T13:50:18;439.30;;;418.05;;
60973;SDS011;46846;51.528;5.076;2023-06-14T13:52:44;453.27;;;431.38;;
60973;SDS011;46846;51.528;5.076;2023-06-14T13:55:09;446.48;;;424.33;;
60973;SDS011;46846;51.528;5.076;2023-06-14T13:57:34;450.95;;;428.88;;
60973;SDS011;46846;51.528;5.076;2023-06-14T14:00:00;451.85;;;429.52;;
60973;SDS011;46846;51.528;5.076;2023-06-14T14:02:28;461.15;;;438.92;;
60973;SDS011;46846;51.528;5.076;2023-06-14T14:04:54;452.58;;;430.38;;
60973;SDS011;46846;51.528;5.076;2023-06-14T14:07:20;452.02;;;430.02;;